sensor_id;sensor_type;location;lat;lon;timestamp;P1;durP1;ratioP1;P2;durP2;ratioP2
71629;SDS011;59479;51.902;8.212;2022-11-15T00:01:29;12.80;;;6.97;;
71629;SDS011;59479;51.902;8.212;2022-11-15T00:03:54;11.13;;;6.67;;
71629;SDS011;59479;51.902;8.212;2022-11-15T00:06:20;14.40;;;7.13;;
71629;SDS011;59479;51.902;8.212;2022-11-15T00:08:46;12.13;;;6.40;;
71629;SDS011;59479;51.902;8.212;2022-11-15T00:11:11;12.23;;;7.37;;
71629;SDS011;59479;51.902;8.212;2022-11-15T00:13:38;14.15;;;7.90;;
71629;SDS011;59479;51.902;8.212;2022-11-15T00:16:04;11.63;;;7.13;;
71629;SDS011;59479;51.902;8.212;2022-11-15T00:18:30;13.13;;;6.70;;
71629;SDS011;59479;51.902;8.212;2022-11-15T00:20:55;11.57;;;7.03;;
71629;SDS011;59479;51.902;8.212;2022-11-15T00:23:27;11.98;;;6.53;;
71629;SDS011;59479;51.902;8.212;2022-11-15T00:25:55;11.10;;;7.00;;
71629;SDS011;59479;51.902;8.212;2022-11-15T00:28:21;13.10;;;6.30;;
71629;SDS011;59479;51.902;8.212;2022-11-15T00:30:46;12.70;;;7.00;;
71629;SDS011;59479;51.902;8.212;2022-11-15T00:33:12;11.65;;;6.60;;
71629;SDS011;59479;51.902;8.212;2022-11-15T00:35:37;10.87;;;5.90;;
71629;SDS011;59479;51.902;8.212;2022-11-15T00:38:03;10.43;;;5.90;;
71629;SDS011;59479;51.902;8.212;2022-11-15T00:40:28;12.47;;;6.23;;
71629;SDS011;59479;51.902;8.212;2022-11-15T00:42:54;11.00;;;6.20;;
71629;SDS011;59479;51.902;8.212;2022-11-15T00:45:20;10.90;;;6.20;;
71629;SDS011;59479;51.902;8.212;2022-11-15T00:47:45;11.33;;;6.10;;
71629;SDS011;59479;51.902;8.212;2022-11-15T00:50:11;12.65;;;5.80;;
71629;SDS011;59479;51.902;8.212;2022-11-15T00:52:36;10.03;;;5.67;;
71629;SDS011;59479;51.902;8.212;2022-11-15T00:55:02;10.80;;;5.73;;
71629;SDS011;59479;51.902;8.212;2022-11-15T00:57:28;11.63;;;5.78;;
71629;SDS011;59479;51.902;8.212;2022-11-15T00:59:53;12.43;;;6.20;;
71629;SDS011;59479;51.902;8.212;2022-11-15T01:02:18;10.23;;;5.60;;
71629;SDS011;59479;51.902;8.212;2022-11-15T01:04:43;9.80;;;5.97;;
71629;SDS011;59479;51.902;8.212;2022-11-15T01:07:09;11.10;;;5.63;;
71629;SDS011;59479;51.902;8.212;2022-11-15T01:09:34;9.70;;;6.03;;
71629;SDS011;59479;51.902;8.212;2022-11-15T01:11:59;10.65;;;5.90;;
71629;SDS011;59479;51.902;8.212;2022-11-15T01:14:27;9.90;;;4.97;;
71629;SDS011;59479;51.902;8.212;2022-11-15T01:16:52;11.23;;;5.95;;
71629;SDS011;59479;51.902;8.212;2022-11-15T01:19:18;11.10;;;5.70;;
71629;SDS011;59479;51.902;8.212;2022-11-15T01:21:43;9.10;;;4.87;;
71629;SDS011;59479;51.902;8.212;2022-11-15T01:24:10;11.80;;;6.30;;
71629;SDS011;59479;51.902;8.212;2022-11-15T01:26:37;10.18;;;5.55;;
71629;SDS011;59479;51.902;8.212;2022-11-15T01:29:02;10.00;;;5.47;;
71629;SDS011;59479;51.902;8.212;2022-11-15T01:31:27;10.83;;;5.17;;
71629;SDS011;59479;51.902;8.212;2022-11-15T01:33:53;11.00;;;5.20;;
71629;SDS011;59479;51.902;8.212;2022-11-15T01:36:19;9.27;;;5.23;;
71629;SDS011;59479;51.902;8.212;2022-11-15T01:38:58;9.35;;;5.10;;
71629;SDS011;59479;51.902;8.212;2022-11-15T01:41:25;9.02;;;5.65;;
71629;SDS011;59479;51.902;8.212;2022-11-15T01:43:53;9.13;;;4.93;;
71629;SDS011;59479;51.902;8.212;2022-11-15T01:48:46;9.70;;;5.77;;
71629;SDS011;59479;51.902;8.212;2022-11-15T01:51:13;10.25;;;5.20;;
71629;SDS011;59479;51.902;8.212;2022-11-15T01:53:41;9.95;;;5.00;;
71629;SDS011;59479;51.902;8.212;2022-11-15T01:56:10;10.52;;;5.75;;
71629;SDS011;59479;51.902;8.212;2022-11-15T01:58:38;10.17;;;5.20;;
71629;SDS011;59479;51.902;8.212;2022-11-15T02:01:05;8.40;;;5.05;;
71629;SDS011;59479;51.902;8.212;2022-11-15T02:03:34;8.88;;;5.15;;
71629;SDS011;59479;51.902;8.212;2022-11-15T02:06:05;9.47;;;5.20;;
71629;SDS011;59479;51.902;8.212;2022-11-15T02:08:30;12.20;;;5.53;;
71629;SDS011;59479;51.902;8.212;2022-11-15T02:10:56;8.70;;;5.37;;
71629;SDS011;59479;51.902;8.212;2022-11-15T02:13:21;9.77;;;5.60;;
71629;SDS011;59479;51.902;8.212;2022-11-15T02:18:35;10.77;;;5.15;;
71629;SDS011;59479;51.902;8.212;2022-11-15T02:21:13;10.18;;;5.38;;
71629;SDS011;59479;51.902;8.212;2022-11-15T02:23:59;10.10;;;5.43;;
71629;SDS011;59479;51.902;8.212;2022-11-15T02:26:45;10.48;;;5.25;;
71629;SDS011;59479;51.902;8.212;2022-11-15T02:32:18;9.82;;;5.38;;
71629;SDS011;59479;51.902;8.212;2022-11-15T02:43:10;10.20;;;5.27;;
71629;SDS011;59479;51.902;8.212;2022-11-15T02:46:07;9.68;;;5.13;;
71629;SDS011;59479;51.902;8.212;2022-11-15T02:48:39;9.32;;;5.57;;
71629;SDS011;59479;51.902;8.212;2022-11-15T02:51:08;12.80;;;5.43;;
71629;SDS011;59479;51.902;8.212;2022-11-15T02:53:33;10.43;;;5.60;;
71629;SDS011;59479;51.902;8.212;2022-11-15T02:55:59;10.00;;;5.10;;
71629;SDS011;59479;51.902;8.212;2022-11-15T03:07:21;9.50;;;5.20;;
71629;SDS011;59479;51.902;8.212;2022-11-15T03:18:33;11.40;;;6.07;;
71629;SDS011;59479;51.902;8.212;2022-11-15T03:21:06;9.55;;;5.47;;
71629;SDS011;59479;51.902;8.212;2022-11-15T03:23:34;10.52;;;5.47;;
71629;SDS011;59479;51.902;8.212;2022-11-15T03:26:02;10.20;;;6.07;;
71629;SDS011;59479;51.902;8.212;2022-11-15T03:28:33;10.07;;;5.50;;
71629;SDS011;59479;51.902;8.212;2022-11-15T03:31:03;9.95;;;5.50;;
71629;SDS011;59479;51.902;8.212;2022-11-15T03:33:52;9.45;;;5.55;;
71629;SDS011;59479;51.902;8.212;2022-11-15T03:36:20;9.52;;;5.70;;
71629;SDS011;59479;51.902;8.212;2022-11-15T03:38:47;11.57;;;6.15;;
71629;SDS011;59479;51.902;8.212;2022-11-15T03:41:15;9.90;;;5.27;;
71629;SDS011;59479;51.902;8.212;2022-11-15T03:46:40;10.17;;;5.37;;
71629;SDS011;59479;51.902;8.212;2022-11-15T03:49:12;9.77;;;5.22;;
71629;SDS011;59479;51.902;8.212;2022-11-15T03:51:42;9.88;;;5.30;;
71629;SDS011;59479;51.902;8.212;2022-11-15T03:54:08;8.97;;;5.20;;
71629;SDS011;59479;51.902;8.212;2022-11-15T03:56:33;9.13;;;5.43;;
71629;SDS011;59479;51.902;8.212;2022-11-15T03:58:58;8.50;;;5.30;;
71629;SDS011;59479;51.902;8.212;2022-11-15T04:01:24;9.73;;;6.00;;
71629;SDS011;59479;51.902;8.212;2022-11-15T04:03:49;9.40;;;5.53;;
71629;SDS011;59479;51.902;8.212;2022-11-15T04:06:14;9.90;;;5.23;;
71629;SDS011;59479;51.902;8.212;2022-11-15T04:08:40;8.87;;;5.07;;
71629;SDS011;59479;51.902;8.212;2022-11-15T04:11:05;10.23;;;5.80;;
71629;SDS011;59479;51.902;8.212;2022-11-15T04:13:30;9.90;;;5.20;;
71629;SDS011;59479;51.902;8.212;2022-11-15T04:15:56;8.53;;;5.10;;
71629;SDS011;59479;51.902;8.212;2022-11-15T04:18:21;10.57;;;5.90;;
71629;SDS011;59479;51.902;8.212;2022-11-15T04:20:46;12.52;;;5.93;;
71629;SDS011;59479;51.902;8.212;2022-11-15T04:23:30;9.18;;;5.95;;
71629;SDS011;59479;51.902;8.212;2022-11-15T04:26:15;9.13;;;5.30;;
71629;SDS011;59479;51.902;8.212;2022-11-15T04:28:45;9.00;;;5.38;;
71629;SDS011;59479;51.902;8.212;2022-11-15T04:31:29;9.63;;;5.65;;
71629;SDS011;59479;51.902;8.212;2022-11-15T04:33:55;8.60;;;6.07;;
71629;SDS011;59479;51.902;8.212;2022-11-15T04:36:21;8.80;;;5.40;;
71629;SDS011;59479;51.902;8.212;2022-11-15T04:39:05;9.07;;;5.50;;
71629;SDS011;59479;51.902;8.212;2022-11-15T04:41:30;9.93;;;5.63;;
71629;SDS011;59479;51.902;8.212;2022-11-15T04:43:56;13.47;;;5.53;;
71629;SDS011;59479;51.902;8.212;2022-11-15T04:46:21;13.00;;;6.90;;
71629;SDS011;59479;51.902;8.212;2022-11-15T04:48:48;10.13;;;5.90;;
71629;SDS011;59479;51.902;8.212;2022-11-15T04:51:14;13.53;;;7.40;;
71629;SDS011;59479;51.902;8.212;2022-11-15T04:53:39;12.23;;;5.80;;
71629;SDS011;59479;51.902;8.212;2022-11-15T04:56:04;11.07;;;5.97;;
71629;SDS011;59479;51.902;8.212;2022-11-15T04:58:30;9.63;;;6.10;;
71629;SDS011;59479;51.902;8.212;2022-11-15T05:00:55;9.67;;;6.03;;
71629;SDS011;59479;51.902;8.212;2022-11-15T05:03:20;13.13;;;5.82;;
71629;SDS011;59479;51.902;8.212;2022-11-15T05:06:04;10.03;;;6.03;;
71629;SDS011;59479;51.902;8.212;2022-11-15T05:08:30;12.38;;;6.05;;
71629;SDS011;59479;51.902;8.212;2022-11-15T05:10:55;10.37;;;5.73;;
71629;SDS011;59479;51.902;8.212;2022-11-15T05:13:20;13.43;;;6.00;;
71629;SDS011;59479;51.902;8.212;2022-11-15T05:15:46;9.17;;;5.23;;
71629;SDS011;59479;51.902;8.212;2022-11-15T05:18:12;14.82;;;6.20;;
71629;SDS011;59479;51.902;8.212;2022-11-15T05:20:38;16.50;;;6.53;;
71629;SDS011;59479;51.902;8.212;2022-11-15T05:23:04;12.57;;;6.10;;
71629;SDS011;59479;51.902;8.212;2022-11-15T05:25:29;10.70;;;5.93;;
71629;SDS011;59479;51.902;8.212;2022-11-15T05:27:54;10.13;;;5.70;;
71629;SDS011;59479;51.902;8.212;2022-11-15T05:30:20;10.93;;;5.83;;
71629;SDS011;59479;51.902;8.212;2022-11-15T05:32:45;12.13;;;5.77;;
71629;SDS011;59479;51.902;8.212;2022-11-15T05:35:17;9.43;;;6.10;;
71629;SDS011;59479;51.902;8.212;2022-11-15T05:37:48;11.00;;;6.07;;
71629;SDS011;59479;51.902;8.212;2022-11-15T05:40:13;11.63;;;6.27;;
71629;SDS011;59479;51.902;8.212;2022-11-15T05:42:38;13.15;;;6.00;;
71629;SDS011;59479;51.902;8.212;2022-11-15T05:45:04;10.43;;;5.93;;
71629;SDS011;59479;51.902;8.212;2022-11-15T05:47:31;10.10;;;6.17;;
71629;SDS011;59479;51.902;8.212;2022-11-15T05:50:00;10.68;;;6.32;;
71629;SDS011;59479;51.902;8.212;2022-11-15T05:52:28;11.07;;;5.88;;
71629;SDS011;59479;51.902;8.212;2022-11-15T05:54:59;12.00;;;6.65;;
71629;SDS011;59479;51.902;8.212;2022-11-15T05:57:24;12.00;;;6.07;;
71629;SDS011;59479;51.902;8.212;2022-11-15T05:59:50;11.80;;;6.63;;
71629;SDS011;59479;51.902;8.212;2022-11-15T06:02:16;10.20;;;6.30;;
71629;SDS011;59479;51.902;8.212;2022-11-15T06:04:41;12.77;;;6.13;;
71629;SDS011;59479;51.902;8.212;2022-11-15T06:07:06;11.90;;;6.67;;
71629;SDS011;59479;51.902;8.212;2022-11-15T06:09:32;10.93;;;6.30;;
71629;SDS011;59479;51.902;8.212;2022-11-15T06:11:57;11.20;;;6.50;;
71629;SDS011;59479;51.902;8.212;2022-11-15T06:14:22;10.30;;;6.50;;
71629;SDS011;59479;51.902;8.212;2022-11-15T06:16:48;9.30;;;5.77;;
71629;SDS011;59479;51.902;8.212;2022-11-15T06:19:13;13.73;;;7.23;;
71629;SDS011;59479;51.902;8.212;2022-11-15T06:21:38;12.30;;;6.20;;
71629;SDS011;59479;51.902;8.212;2022-11-15T06:24:04;12.30;;;5.87;;
71629;SDS011;59479;51.902;8.212;2022-11-15T06:26:30;11.63;;;6.80;;
71629;SDS011;59479;51.902;8.212;2022-11-15T06:28:56;10.73;;;6.00;;
71629;SDS011;59479;51.902;8.212;2022-11-15T06:31:21;14.03;;;6.80;;
71629;SDS011;59479;51.902;8.212;2022-11-15T06:33:47;11.93;;;6.20;;
71629;SDS011;59479;51.902;8.212;2022-11-15T06:36:14;10.40;;;6.45;;
71629;SDS011;59479;51.902;8.212;2022-11-15T06:38:41;13.90;;;6.68;;
71629;SDS011;59479;51.902;8.212;2022-11-15T06:41:08;12.17;;;6.93;;
71629;SDS011;59479;51.902;8.212;2022-11-15T06:43:34;11.95;;;6.80;;
71629;SDS011;59479;51.902;8.212;2022-11-15T06:46:00;11.73;;;6.50;;
71629;SDS011;59479;51.902;8.212;2022-11-15T06:48:27;12.38;;;6.95;;
71629;SDS011;59479;51.902;8.212;2022-11-15T06:50:54;12.55;;;6.90;;
71629;SDS011;59479;51.902;8.212;2022-11-15T06:53:20;11.23;;;7.15;;
71629;SDS011;59479;51.902;8.212;2022-11-15T06:55:45;10.93;;;6.83;;
71629;SDS011;59479;51.902;8.212;2022-11-15T06:58:11;13.88;;;7.10;;
71629;SDS011;59479;51.902;8.212;2022-11-15T07:00:36;10.33;;;6.00;;
71629;SDS011;59479;51.902;8.212;2022-11-15T07:03:02;10.17;;;6.30;;
71629;SDS011;59479;51.902;8.212;2022-11-15T07:05:28;11.30;;;6.45;;
71629;SDS011;59479;51.902;8.212;2022-11-15T07:07:54;11.73;;;6.33;;
71629;SDS011;59479;51.902;8.212;2022-11-15T07:10:20;11.75;;;7.05;;
71629;SDS011;59479;51.902;8.212;2022-11-15T07:12:47;11.85;;;6.40;;
71629;SDS011;59479;51.902;8.212;2022-11-15T07:15:14;12.32;;;6.72;;
71629;SDS011;59479;51.902;8.212;2022-11-15T07:17:40;9.63;;;5.93;;
71629;SDS011;59479;51.902;8.212;2022-11-15T07:20:05;12.03;;;6.80;;
71629;SDS011;59479;51.902;8.212;2022-11-15T07:22:31;10.13;;;6.32;;
71629;SDS011;59479;51.902;8.212;2022-11-15T07:24:56;10.87;;;6.33;;
71629;SDS011;59479;51.902;8.212;2022-11-15T07:27:21;11.60;;;7.03;;
71629;SDS011;59479;51.902;8.212;2022-11-15T07:29:47;12.03;;;6.30;;
71629;SDS011;59479;51.902;8.212;2022-11-15T07:32:12;12.37;;;5.50;;
71629;SDS011;59479;51.902;8.212;2022-11-15T07:34:37;9.55;;;5.72;;
71629;SDS011;59479;51.902;8.212;2022-11-15T07:37:03;9.83;;;6.03;;
71629;SDS011;59479;51.902;8.212;2022-11-15T07:39:28;12.30;;;6.60;;
71629;SDS011;59479;51.902;8.212;2022-11-15T07:41:53;10.33;;;6.70;;
71629;SDS011;59479;51.902;8.212;2022-11-15T07:44:38;11.02;;;6.30;;
71629;SDS011;59479;51.902;8.212;2022-11-15T07:47:04;10.43;;;6.77;;
71629;SDS011;59479;51.902;8.212;2022-11-15T07:49:29;11.50;;;6.47;;
71629;SDS011;59479;51.902;8.212;2022-11-15T07:51:54;12.70;;;6.67;;
71629;SDS011;59479;51.902;8.212;2022-11-15T07:54:20;11.87;;;6.70;;
71629;SDS011;59479;51.902;8.212;2022-11-15T07:56:45;11.87;;;6.23;;
71629;SDS011;59479;51.902;8.212;2022-11-15T07:59:10;10.93;;;6.40;;
71629;SDS011;59479;51.902;8.212;2022-11-15T08:01:36;13.00;;;6.40;;
71629;SDS011;59479;51.902;8.212;2022-11-15T08:04:01;8.57;;;5.50;;
71629;SDS011;59479;51.902;8.212;2022-11-15T08:06:26;10.17;;;5.50;;
71629;SDS011;59479;51.902;8.212;2022-11-15T08:08:51;8.83;;;5.07;;
71629;SDS011;59479;51.902;8.212;2022-11-15T08:11:17;9.47;;;5.70;;
71629;SDS011;59479;51.902;8.212;2022-11-15T08:13:42;10.00;;;5.23;;
71629;SDS011;59479;51.902;8.212;2022-11-15T08:16:07;9.10;;;5.00;;
71629;SDS011;59479;51.902;8.212;2022-11-15T08:18:33;8.97;;;5.40;;
71629;SDS011;59479;51.902;8.212;2022-11-15T08:20:59;8.27;;;4.60;;
71629;SDS011;59479;51.902;8.212;2022-11-15T08:23:25;7.40;;;4.45;;
71629;SDS011;59479;51.902;8.212;2022-11-15T08:25:50;7.60;;;4.80;;
71629;SDS011;59479;51.902;8.212;2022-11-15T08:28:16;7.63;;;4.00;;
71629;SDS011;59479;51.902;8.212;2022-11-15T08:30:41;7.53;;;3.90;;
71629;SDS011;59479;51.902;8.212;2022-11-15T08:33:10;7.00;;;4.70;;
71629;SDS011;59479;51.902;8.212;2022-11-15T08:35:37;6.22;;;3.65;;
71629;SDS011;59479;51.902;8.212;2022-11-15T08:38:02;7.20;;;3.67;;
71629;SDS011;59479;51.902;8.212;2022-11-15T08:40:27;6.53;;;3.03;;
71629;SDS011;59479;51.902;8.212;2022-11-15T08:42:52;5.93;;;3.40;;
71629;SDS011;59479;51.902;8.212;2022-11-15T08:45:18;6.10;;;3.10;;
71629;SDS011;59479;51.902;8.212;2022-11-15T08:47:43;5.40;;;3.10;;
71629;SDS011;59479;51.902;8.212;2022-11-15T08:50:09;5.23;;;2.93;;
71629;SDS011;59479;51.902;8.212;2022-11-15T08:52:34;5.30;;;2.83;;
71629;SDS011;59479;51.902;8.212;2022-11-15T08:54:59;5.50;;;2.63;;
71629;SDS011;59479;51.902;8.212;2022-11-15T08:57:27;5.97;;;2.60;;
71629;SDS011;59479;51.902;8.212;2022-11-15T08:59:55;4.67;;;2.17;;
71629;SDS011;59479;51.902;8.212;2022-11-15T09:02:20;5.50;;;2.30;;
71629;SDS011;59479;51.902;8.212;2022-11-15T09:04:45;4.32;;;2.47;;
71629;SDS011;59479;51.902;8.212;2022-11-15T09:07:10;4.77;;;2.10;;
71629;SDS011;59479;51.902;8.212;2022-11-15T09:09:37;5.50;;;2.73;;
71629;SDS011;59479;51.902;8.212;2022-11-15T09:12:03;4.97;;;2.13;;
71629;SDS011;59479;51.902;8.212;2022-11-15T09:14:29;4.55;;;2.42;;
71629;SDS011;59479;51.902;8.212;2022-11-15T09:16:54;4.07;;;2.43;;
71629;SDS011;59479;51.902;8.212;2022-11-15T09:19:20;7.60;;;2.27;;
71629;SDS011;59479;51.902;8.212;2022-11-15T09:21:46;4.00;;;2.00;;
71629;SDS011;59479;51.902;8.212;2022-11-15T09:24:11;6.47;;;2.67;;
71629;SDS011;59479;51.902;8.212;2022-11-15T09:26:36;7.63;;;2.50;;
71629;SDS011;59479;51.902;8.212;2022-11-15T09:29:02;5.33;;;2.30;;
71629;SDS011;59479;51.902;8.212;2022-11-15T09:31:27;5.25;;;2.25;;
71629;SDS011;59479;51.902;8.212;2022-11-15T09:33:54;3.90;;;2.10;;
71629;SDS011;59479;51.902;8.212;2022-11-15T09:36:19;4.87;;;2.13;;
71629;SDS011;59479;51.902;8.212;2022-11-15T09:38:45;4.93;;;2.60;;
71629;SDS011;59479;51.902;8.212;2022-11-15T09:46:32;4.25;;;2.33;;
71629;SDS011;59479;51.902;8.212;2022-11-15T09:49:01;4.55;;;2.22;;
71629;SDS011;59479;51.902;8.212;2022-11-15T09:56:33;4.72;;;2.25;;
71629;SDS011;59479;51.902;8.212;2022-11-15T10:01:52;5.13;;;2.13;;
71629;SDS011;59479;51.902;8.212;2022-11-15T10:04:22;4.23;;;1.80;;
71629;SDS011;59479;51.902;8.212;2022-11-15T10:06:51;6.72;;;2.30;;
71629;SDS011;59479;51.902;8.212;2022-11-15T10:09:27;5.78;;;2.25;;
71629;SDS011;59479;51.902;8.212;2022-11-15T10:11:59;4.90;;;2.25;;
71629;SDS011;59479;51.902;8.212;2022-11-15T10:14:25;6.07;;;2.10;;
71629;SDS011;59479;51.902;8.212;2022-11-15T10:22:38;5.73;;;2.10;;
71629;SDS011;59479;51.902;8.212;2022-11-15T10:27:34;3.80;;;1.52;;
71629;SDS011;59479;51.902;8.212;2022-11-15T10:30:00;3.55;;;1.65;;
71629;SDS011;59479;51.902;8.212;2022-11-15T10:32:26;3.53;;;2.03;;
71629;SDS011;59479;51.902;8.212;2022-11-15T10:34:51;4.03;;;1.70;;
71629;SDS011;59479;51.902;8.212;2022-11-15T10:37:27;3.67;;;1.57;;
71629;SDS011;59479;51.902;8.212;2022-11-15T10:42:40;3.55;;;1.58;;
71629;SDS011;59479;51.902;8.212;2022-11-15T10:47:59;3.80;;;1.88;;
71629;SDS011;59479;51.902;8.212;2022-11-15T10:53:17;3.40;;;1.80;;
71629;SDS011;59479;51.902;8.212;2022-11-15T10:55:50;3.17;;;1.67;;
71629;SDS011;59479;51.902;8.212;2022-11-15T11:04:06;3.37;;;1.20;;
71629;SDS011;59479;51.902;8.212;2022-11-15T11:06:45;4.43;;;1.30;;
71629;SDS011;59479;51.902;8.212;2022-11-15T11:09:23;3.70;;;1.40;;
71629;SDS011;59479;51.902;8.212;2022-11-15T11:11:51;4.03;;;1.60;;
71629;SDS011;59479;51.902;8.212;2022-11-15T11:25:30;3.10;;;1.40;;
71629;SDS011;59479;51.902;8.212;2022-11-15T11:28:16;5.25;;;1.60;;
71629;SDS011;59479;51.902;8.212;2022-11-15T11:30:47;4.20;;;1.50;;
71629;SDS011;59479;51.902;8.212;2022-11-15T11:33:21;4.55;;;1.60;;
71629;SDS011;59479;51.902;8.212;2022-11-15T11:36:05;3.05;;;1.55;;
71629;SDS011;59479;51.902;8.212;2022-11-15T11:38:48;3.47;;;1.30;;
71629;SDS011;59479;51.902;8.212;2022-11-15T11:47:09;3.47;;;1.70;;
71629;SDS011;59479;51.902;8.212;2022-11-15T11:49:41;3.97;;;1.77;;
71629;SDS011;59479;51.902;8.212;2022-11-15T11:55:14;4.75;;;2.10;;
71629;SDS011;59479;51.902;8.212;2022-11-15T12:00:26;3.70;;;1.70;;
71629;SDS011;59479;51.902;8.212;2022-11-15T12:05:40;5.25;;;2.10;;
71629;SDS011;59479;51.902;8.212;2022-11-15T12:11:22;4.03;;;2.00;;
71629;SDS011;59479;51.902;8.212;2022-11-15T12:13:58;4.97;;;2.17;;
71629;SDS011;59479;51.902;8.212;2022-11-15T12:16:30;4.90;;;2.03;;
71629;SDS011;59479;51.902;8.212;2022-11-15T12:19:01;4.18;;;1.80;;
71629;SDS011;59479;51.902;8.212;2022-11-15T12:21:47;3.47;;;1.95;;
71629;SDS011;59479;51.902;8.212;2022-11-15T12:24:41;4.07;;;1.80;;
71629;SDS011;59479;51.902;8.212;2022-11-15T12:29:56;4.47;;;2.08;;
71629;SDS011;59479;51.902;8.212;2022-11-15T12:32:29;3.95;;;1.92;;
71629;SDS011;59479;51.902;8.212;2022-11-15T12:34:57;3.83;;;1.85;;
71629;SDS011;59479;51.902;8.212;2022-11-15T12:48:21;4.50;;;2.25;;
71629;SDS011;59479;51.902;8.212;2022-11-15T12:59:38;4.07;;;1.77;;
71629;SDS011;59479;51.902;8.212;2022-11-15T13:06:49;4.80;;;1.85;;
71629;SDS011;59479;51.902;8.212;2022-11-15T13:12:01;3.55;;;1.88;;
71629;SDS011;59479;51.902;8.212;2022-11-15T13:17:02;4.35;;;1.95;;
71629;SDS011;59479;51.902;8.212;2022-11-15T13:19:47;3.40;;;1.70;;
71629;SDS011;59479;51.902;8.212;2022-11-15T13:22:17;4.40;;;1.67;;
71629;SDS011;59479;51.902;8.212;2022-11-15T13:25:01;3.10;;;1.63;;
71629;SDS011;59479;51.902;8.212;2022-11-15T13:27:27;3.30;;;1.80;;
71629;SDS011;59479;51.902;8.212;2022-11-15T13:29:53;4.00;;;1.70;;
71629;SDS011;59479;51.902;8.212;2022-11-15T13:32:19;3.30;;;1.77;;
71629;SDS011;59479;51.902;8.212;2022-11-15T13:34:48;3.87;;;1.80;;
71629;SDS011;59479;51.902;8.212;2022-11-15T13:39:45;3.65;;;1.77;;
71629;SDS011;59479;51.902;8.212;2022-11-15T13:42:14;3.55;;;1.52;;
71629;SDS011;59479;51.902;8.212;2022-11-15T13:44:41;3.73;;;1.53;;
71629;SDS011;59479;51.902;8.212;2022-11-15T13:47:25;3.80;;;1.90;;
71629;SDS011;59479;51.902;8.212;2022-11-15T13:49:57;4.13;;;1.60;;
71629;SDS011;59479;51.902;8.212;2022-11-15T13:52:25;4.03;;;1.77;;
71629;SDS011;59479;51.902;8.212;2022-11-15T13:54:59;3.63;;;1.73;;
71629;SDS011;59479;51.902;8.212;2022-11-15T13:58:02;5.40;;;1.60;;
71629;SDS011;59479;51.902;8.212;2022-11-15T14:02:57;3.30;;;1.60;;
71629;SDS011;59479;51.902;8.212;2022-11-15T14:05:31;3.63;;;1.75;;
71629;SDS011;59479;51.902;8.212;2022-11-15T14:07:57;4.60;;;2.20;;
71629;SDS011;59479;51.902;8.212;2022-11-15T14:12:58;3.65;;;1.80;;
71629;SDS011;59479;51.902;8.212;2022-11-15T14:17:57;3.72;;;1.50;;
71629;SDS011;59479;51.902;8.212;2022-11-15T14:22:51;4.00;;;1.73;;
71629;SDS011;59479;51.902;8.212;2022-11-15T14:25:22;3.47;;;1.77;;
71629;SDS011;59479;51.902;8.212;2022-11-15T14:30:35;4.65;;;1.98;;
71629;SDS011;59479;51.902;8.212;2022-11-15T14:33:01;4.47;;;1.93;;
71629;SDS011;59479;51.902;8.212;2022-11-15T14:35:26;3.47;;;1.63;;
71629;SDS011;59479;51.902;8.212;2022-11-15T14:37:51;3.40;;;1.63;;
71629;SDS011;59479;51.902;8.212;2022-11-15T14:40:18;3.50;;;1.42;;
71629;SDS011;59479;51.902;8.212;2022-11-15T14:42:46;3.60;;;2.00;;
71629;SDS011;59479;51.902;8.212;2022-11-15T14:47:42;3.80;;;1.80;;
71629;SDS011;59479;51.902;8.212;2022-11-15T14:50:12;3.60;;;1.60;;
71629;SDS011;59479;51.902;8.212;2022-11-15T14:52:42;3.72;;;1.60;;
71629;SDS011;59479;51.902;8.212;2022-11-15T14:55:21;3.70;;;1.40;;
71629;SDS011;59479;51.902;8.212;2022-11-15T14:57:48;4.05;;;1.92;;
71629;SDS011;59479;51.902;8.212;2022-11-15T15:00:14;3.70;;;1.60;;
71629;SDS011;59479;51.902;8.212;2022-11-15T15:02:41;3.20;;;1.65;;
71629;SDS011;59479;51.902;8.212;2022-11-15T15:05:15;3.00;;;1.55;;
71629;SDS011;59479;51.902;8.212;2022-11-15T15:07:44;3.70;;;1.80;;
71629;SDS011;59479;51.902;8.212;2022-11-15T15:10:10;3.97;;;1.70;;
71629;SDS011;59479;51.902;8.212;2022-11-15T15:12:36;5.10;;;1.90;;
71629;SDS011;59479;51.902;8.212;2022-11-15T15:15:02;4.30;;;1.90;;
71629;SDS011;59479;51.902;8.212;2022-11-15T15:17:27;6.53;;;2.70;;
71629;SDS011;59479;51.902;8.212;2022-11-15T15:19:53;3.80;;;1.80;;
71629;SDS011;59479;51.902;8.212;2022-11-15T15:22:18;6.77;;;1.73;;
71629;SDS011;59479;51.902;8.212;2022-11-15T15:24:47;4.88;;;1.88;;
71629;SDS011;59479;51.902;8.212;2022-11-15T15:27:12;4.80;;;1.87;;
71629;SDS011;59479;51.902;8.212;2022-11-15T15:29:38;4.00;;;1.40;;
71629;SDS011;59479;51.902;8.212;2022-11-15T15:32:04;4.63;;;1.53;;
71629;SDS011;59479;51.902;8.212;2022-11-15T15:34:30;3.55;;;2.00;;
71629;SDS011;59479;51.902;8.212;2022-11-15T15:39:33;4.67;;;1.40;;
71629;SDS011;59479;51.902;8.212;2022-11-15T15:41:58;3.20;;;1.70;;
71629;SDS011;59479;51.902;8.212;2022-11-15T15:44:24;4.53;;;1.98;;
71629;SDS011;59479;51.902;8.212;2022-11-15T15:46:49;4.17;;;1.73;;
71629;SDS011;59479;51.902;8.212;2022-11-15T15:49:14;4.50;;;1.90;;
71629;SDS011;59479;51.902;8.212;2022-11-15T15:51:39;4.23;;;2.00;;
71629;SDS011;59479;51.902;8.212;2022-11-15T15:54:05;5.13;;;2.20;;
71629;SDS011;59479;51.902;8.212;2022-11-15T15:56:30;3.97;;;2.00;;
71629;SDS011;59479;51.902;8.212;2022-11-15T15:58:58;4.18;;;1.80;;
71629;SDS011;59479;51.902;8.212;2022-11-15T16:01:23;5.40;;;1.87;;
71629;SDS011;59479;51.902;8.212;2022-11-15T16:03:49;4.95;;;1.67;;
71629;SDS011;59479;51.902;8.212;2022-11-15T16:09:00;5.00;;;1.88;;
71629;SDS011;59479;51.902;8.212;2022-11-15T16:11:26;6.40;;;2.30;;
71629;SDS011;59479;51.902;8.212;2022-11-15T16:13:51;5.03;;;2.20;;
71629;SDS011;59479;51.902;8.212;2022-11-15T16:16:17;4.80;;;2.20;;
71629;SDS011;59479;51.902;8.212;2022-11-15T16:18:42;5.30;;;2.40;;
71629;SDS011;59479;51.902;8.212;2022-11-15T16:21:08;4.97;;;2.37;;
71629;SDS011;59479;51.902;8.212;2022-11-15T16:23:33;4.35;;;2.08;;
71629;SDS011;59479;51.902;8.212;2022-11-15T16:25:58;5.78;;;2.45;;
71629;SDS011;59479;51.902;8.212;2022-11-15T16:30:58;5.53;;;3.10;;
71629;SDS011;59479;51.902;8.212;2022-11-15T16:33:25;4.82;;;2.47;;
71629;SDS011;59479;51.902;8.212;2022-11-15T16:35:51;7.67;;;2.67;;
71629;SDS011;59479;51.902;8.212;2022-11-15T16:38:16;6.30;;;2.42;;
71629;SDS011;59479;51.902;8.212;2022-11-15T16:40:42;6.23;;;2.90;;
71629;SDS011;59479;51.902;8.212;2022-11-15T16:43:07;5.53;;;2.80;;
71629;SDS011;59479;51.902;8.212;2022-11-15T16:45:33;6.93;;;2.77;;
71629;SDS011;59479;51.902;8.212;2022-11-15T16:47:59;4.93;;;2.72;;
71629;SDS011;59479;51.902;8.212;2022-11-15T16:50:26;7.85;;;2.90;;
71629;SDS011;59479;51.902;8.212;2022-11-15T16:52:54;4.97;;;2.60;;
71629;SDS011;59479;51.902;8.212;2022-11-15T16:55:21;7.50;;;2.90;;
71629;SDS011;59479;51.902;8.212;2022-11-15T16:57:48;5.28;;;2.80;;
71629;SDS011;59479;51.902;8.212;2022-11-15T17:00:14;7.15;;;3.30;;
71629;SDS011;59479;51.902;8.212;2022-11-15T17:02:44;4.73;;;2.60;;
71629;SDS011;59479;51.902;8.212;2022-11-15T17:05:11;6.68;;;2.92;;
71629;SDS011;59479;51.902;8.212;2022-11-15T17:07:37;6.55;;;3.17;;
71629;SDS011;59479;51.902;8.212;2022-11-15T17:10:03;6.05;;;3.13;;
71629;SDS011;59479;51.902;8.212;2022-11-15T17:12:29;6.10;;;2.83;;
71629;SDS011;59479;51.902;8.212;2022-11-15T17:14:55;7.65;;;3.20;;
71629;SDS011;59479;51.902;8.212;2022-11-15T17:17:21;5.63;;;2.60;;
71629;SDS011;59479;51.902;8.212;2022-11-15T17:19:46;5.35;;;2.92;;
71629;SDS011;59479;51.902;8.212;2022-11-15T17:22:11;6.13;;;3.10;;
71629;SDS011;59479;51.902;8.212;2022-11-15T17:24:37;6.93;;;2.70;;
71629;SDS011;59479;51.902;8.212;2022-11-15T17:27:02;5.93;;;3.57;;